sensor_id;sensor_type;location;lat;lon;timestamp;P1;durP1;ratioP1;P2;durP2;ratioP2
59207;SDS011;44977;53.132;6.408;2023-09-19T00:04:23;11.00;;;2.58;;
59207;SDS011;44977;53.132;6.408;2023-09-19T00:09:29;10.85;;;2.38;;
59207;SDS011;44977;53.132;6.408;2023-09-19T00:14:30;10.77;;;2.33;;
59207;SDS011;44977;53.132;6.408;2023-09-19T00:19:34;8.63;;;2.47;;
59207;SDS011;44977;53.132;6.408;2023-09-19T00:24:35;11.98;;;2.80;;
59207;SDS011;44977;53.132;6.408;2023-09-19T00:29:36;8.40;;;2.28;;
59207;SDS011;44977;53.132;6.408;2023-09-19T00:34:36;11.20;;;2.47;;
59207;SDS011;44977;53.132;6.408;2023-09-19T00:39:37;8.55;;;2.13;;
59207;SDS011;44977;53.132;6.408;2023-09-19T00:44:38;8.30;;;2.40;;
59207;SDS011;44977;53.132;6.408;2023-09-19T00:49:40;10.93;;;2.60;;
59207;SDS011;44977;53.132;6.408;2023-09-19T00:54:42;9.57;;;2.25;;
59207;SDS011;44977;53.132;6.408;2023-09-19T00:59:42;9.20;;;2.95;;
59207;SDS011;44977;53.132;6.408;2023-09-19T01:04:44;14.52;;;2.60;;
59207;SDS011;44977;53.132;6.408;2023-09-19T01:09:45;12.50;;;2.90;;
59207;SDS011;44977;53.132;6.408;2023-09-19T01:14:54;10.30;;;2.70;;
59207;SDS011;44977;53.132;6.408;2023-09-19T01:20:18;11.88;;;2.72;;
59207;SDS011;44977;53.132;6.408;2023-09-19T01:30:35;9.52;;;2.63;;
59207;SDS011;44977;53.132;6.408;2023-09-19T01:35:39;11.13;;;2.67;;
59207;SDS011;44977;53.132;6.408;2023-09-19T01:40:43;10.75;;;2.13;;
59207;SDS011;44977;53.132;6.408;2023-09-19T01:46:14;9.57;;;2.53;;
59207;SDS011;44977;53.132;6.408;2023-09-19T01:51:34;9.45;;;2.80;;
59207;SDS011;44977;53.132;6.408;2023-09-19T02:02:09;11.57;;;2.85;;
59207;SDS011;44977;53.132;6.408;2023-09-19T02:07:10;9.52;;;2.40;;
59207;SDS011;44977;53.132;6.408;2023-09-19T02:12:11;8.98;;;2.40;;
59207;SDS011;44977;53.132;6.408;2023-09-19T02:17:11;10.25;;;2.53;;
59207;SDS011;44977;53.132;6.408;2023-09-19T02:22:12;8.50;;;2.33;;
59207;SDS011;44977;53.132;6.408;2023-09-19T02:27:14;10.38;;;2.85;;
59207;SDS011;44977;53.132;6.408;2023-09-19T02:32:16;8.70;;;2.25;;
59207;SDS011;44977;53.132;6.408;2023-09-19T02:37:18;10.23;;;2.50;;
59207;SDS011;44977;53.132;6.408;2023-09-19T02:42:19;10.45;;;2.80;;
59207;SDS011;44977;53.132;6.408;2023-09-19T02:47:20;11.23;;;2.72;;
59207;SDS011;44977;53.132;6.408;2023-09-19T02:52:21;11.15;;;2.90;;
59207;SDS011;44977;53.132;6.408;2023-09-19T02:57:22;7.55;;;2.55;;
59207;SDS011;44977;53.132;6.408;2023-09-19T03:02:24;10.93;;;2.40;;
59207;SDS011;44977;53.132;6.408;2023-09-19T03:07:25;10.82;;;2.42;;
59207;SDS011;44977;53.132;6.408;2023-09-19T03:12:26;11.50;;;2.65;;
59207;SDS011;44977;53.132;6.408;2023-09-19T03:17:27;11.93;;;2.35;;
59207;SDS011;44977;53.132;6.408;2023-09-19T03:22:27;10.48;;;2.88;;
59207;SDS011;44977;53.132;6.408;2023-09-19T03:27:28;11.45;;;2.58;;
59207;SDS011;44977;53.132;6.408;2023-09-19T03:32:29;9.80;;;2.58;;
59207;SDS011;44977;53.132;6.408;2023-09-19T03:37:29;11.15;;;2.40;;
59207;SDS011;44977;53.132;6.408;2023-09-19T03:42:31;10.00;;;2.33;;
59207;SDS011;44977;53.132;6.408;2023-09-19T03:47:32;11.20;;;2.97;;
59207;SDS011;44977;53.132;6.408;2023-09-19T03:52:33;8.00;;;2.28;;
59207;SDS011;44977;53.132;6.408;2023-09-19T03:57:34;9.73;;;2.75;;
59207;SDS011;44977;53.132;6.408;2023-09-19T04:02:35;10.35;;;2.70;;
59207;SDS011;44977;53.132;6.408;2023-09-19T04:07:36;11.10;;;2.60;;
59207;SDS011;44977;53.132;6.408;2023-09-19T04:12:37;9.73;;;2.65;;
59207;SDS011;44977;53.132;6.408;2023-09-19T04:17:38;9.85;;;2.50;;
59207;SDS011;44977;53.132;6.408;2023-09-19T04:22:39;8.93;;;2.30;;
59207;SDS011;44977;53.132;6.408;2023-09-19T04:27:40;10.82;;;2.60;;
59207;SDS011;44977;53.132;6.408;2023-09-19T04:32:41;8.45;;;2.40;;
59207;SDS011;44977;53.132;6.408;2023-09-19T04:37:42;11.77;;;2.70;;
59207;SDS011;44977;53.132;6.408;2023-09-19T04:42:43;13.88;;;2.88;;
59207;SDS011;44977;53.132;6.408;2023-09-19T04:47:45;9.32;;;2.75;;
59207;SDS011;44977;53.132;6.408;2023-09-19T04:52:49;12.52;;;2.78;;
59207;SDS011;44977;53.132;6.408;2023-09-19T04:57:50;8.82;;;2.42;;
59207;SDS011;44977;53.132;6.408;2023-09-19T05:02:54;7.72;;;2.30;;
59207;SDS011;44977;53.132;6.408;2023-09-19T05:07:58;9.68;;;2.47;;
59207;SDS011;44977;53.132;6.408;2023-09-19T05:12:59;9.90;;;2.83;;
59207;SDS011;44977;53.132;6.408;2023-09-19T05:18:01;10.30;;;2.72;;
59207;SDS011;44977;53.132;6.408;2023-09-19T05:23:02;11.15;;;2.72;;
59207;SDS011;44977;53.132;6.408;2023-09-19T05:28:06;9.55;;;2.78;;
59207;SDS011;44977;53.132;6.408;2023-09-19T05:33:07;10.43;;;2.78;;
59207;SDS011;44977;53.132;6.408;2023-09-19T05:38:08;8.88;;;2.40;;
59207;SDS011;44977;53.132;6.408;2023-09-19T05:43:09;10.25;;;2.50;;
59207;SDS011;44977;53.132;6.408;2023-09-19T05:48:10;11.30;;;3.10;;
59207;SDS011;44977;53.132;6.408;2023-09-19T05:53:14;11.40;;;3.20;;
59207;SDS011;44977;53.132;6.408;2023-09-19T05:58:15;9.73;;;2.50;;
59207;SDS011;44977;53.132;6.408;2023-09-19T06:03:17;10.60;;;2.92;;
59207;SDS011;44977;53.132;6.408;2023-09-19T06:08:20;11.35;;;3.13;;
59207;SDS011;44977;53.132;6.408;2023-09-19T06:13:21;11.23;;;3.15;;
59207;SDS011;44977;53.132;6.408;2023-09-19T06:18:22;14.57;;;3.03;;
59207;SDS011;44977;53.132;6.408;2023-09-19T06:23:26;13.13;;;3.00;;
59207;SDS011;44977;53.132;6.408;2023-09-19T06:28:29;13.43;;;3.20;;
59207;SDS011;44977;53.132;6.408;2023-09-19T06:33:29;12.90;;;3.20;;
59207;SDS011;44977;53.132;6.408;2023-09-19T06:38:31;12.65;;;3.00;;
59207;SDS011;44977;53.132;6.408;2023-09-19T06:43:34;13.68;;;3.22;;
59207;SDS011;44977;53.132;6.408;2023-09-19T06:48:35;11.90;;;3.28;;
59207;SDS011;44977;53.132;6.408;2023-09-19T06:53:36;13.82;;;3.08;;
59207;SDS011;44977;53.132;6.408;2023-09-19T06:58:36;13.07;;;3.20;;
59207;SDS011;44977;53.132;6.408;2023-09-19T07:03:37;9.85;;;2.83;;
59207;SDS011;44977;53.132;6.408;2023-09-19T07:08:38;12.48;;;3.53;;
59207;SDS011;44977;53.132;6.408;2023-09-19T07:13:39;11.38;;;2.83;;
59207;SDS011;44977;53.132;6.408;2023-09-19T07:18:40;11.68;;;2.80;;
59207;SDS011;44977;53.132;6.408;2023-09-19T07:23:41;9.82;;;2.90;;
59207;SDS011;44977;53.132;6.408;2023-09-19T07:28:42;13.43;;;3.28;;
59207;SDS011;44977;53.132;6.408;2023-09-19T07:33:43;12.25;;;3.08;;
59207;SDS011;44977;53.132;6.408;2023-09-19T07:38:43;10.82;;;3.03;;
59207;SDS011;44977;53.132;6.408;2023-09-19T07:43:44;13.70;;;3.63;;
59207;SDS011;44977;53.132;6.408;2023-09-19T07:48:45;13.10;;;3.13;;
59207;SDS011;44977;53.132;6.408;2023-09-19T07:53:48;12.80;;;3.22;;
59207;SDS011;44977;53.132;6.408;2023-09-19T07:58:49;12.63;;;3.08;;
59207;SDS011;44977;53.132;6.408;2023-09-19T08:03:50;9.70;;;2.90;;
59207;SDS011;44977;53.132;6.408;2023-09-19T08:08:51;9.52;;;2.63;;
59207;SDS011;44977;53.132;6.408;2023-09-19T08:13:53;10.88;;;3.00;;
59207;SDS011;44977;53.132;6.408;2023-09-19T08:18:54;10.75;;;3.22;;
59207;SDS011;44977;53.132;6.408;2023-09-19T08:23:55;11.55;;;2.97;;
59207;SDS011;44977;53.132;6.408;2023-09-19T08:28:57;11.88;;;2.75;;
59207;SDS011;44977;53.132;6.408;2023-09-19T08:33:57;12.23;;;3.03;;
59207;SDS011;44977;53.132;6.408;2023-09-19T08:38:59;11.02;;;3.00;;
59207;SDS011;44977;53.132;6.408;2023-09-19T08:44:00;11.43;;;2.97;;
59207;SDS011;44977;53.132;6.408;2023-09-19T08:49:05;12.10;;;3.35;;
59207;SDS011;44977;53.132;6.408;2023-09-19T08:54:26;10.60;;;2.92;;
59207;SDS011;44977;53.132;6.408;2023-09-19T08:59:32;10.88;;;3.10;;
59207;SDS011;44977;53.132;6.408;2023-09-19T09:04:35;11.82;;;3.72;;
59207;SDS011;44977;53.132;6.408;2023-09-19T09:09:36;12.32;;;3.50;;
59207;SDS011;44977;53.132;6.408;2023-09-19T09:14:37;10.88;;;3.65;;
59207;SDS011;44977;53.132;6.408;2023-09-19T09:19:38;13.00;;;3.72;;
59207;SDS011;44977;53.132;6.408;2023-09-19T09:24:54;11.77;;;3.83;;
59207;SDS011;44977;53.132;6.408;2023-09-19T09:29:58;11.73;;;3.58;;
59207;SDS011;44977;53.132;6.408;2023-09-19T09:35:00;13.85;;;3.95;;
59207;SDS011;44977;53.132;6.408;2023-09-19T09:40:02;12.02;;;3.63;;
59207;SDS011;44977;53.132;6.408;2023-09-19T09:45:25;14.57;;;3.90;;
59207;SDS011;44977;53.132;6.408;2023-09-19T09:50:37;15.13;;;3.75;;
59207;SDS011;44977;53.132;6.408;2023-09-19T09:56:06;12.25;;;3.45;;
59207;SDS011;44977;53.132;6.408;2023-09-19T10:01:11;14.98;;;3.85;;
59207;SDS011;44977;53.132;6.408;2023-09-19T10:06:15;14.88;;;3.95;;
59207;SDS011;44977;53.132;6.408;2023-09-19T10:11:27;15.52;;;3.38;;
59207;SDS011;44977;53.132;6.408;2023-09-19T10:16:30;14.13;;;3.00;;
59207;SDS011;44977;53.132;6.408;2023-09-19T10:21:32;12.15;;;3.20;;
59207;SDS011;44977;53.132;6.408;2023-09-19T10:26:36;13.32;;;3.30;;
59207;SDS011;44977;53.132;6.408;2023-09-19T10:31:39;12.07;;;3.42;;
59207;SDS011;44977;53.132;6.408;2023-09-19T10:36:47;14.25;;;3.88;;
59207;SDS011;44977;53.132;6.408;2023-09-19T10:41:51;13.75;;;3.63;;
59207;SDS011;44977;53.132;6.408;2023-09-19T10:46:58;14.20;;;3.80;;
59207;SDS011;44977;53.132;6.408;2023-09-19T10:51:59;13.48;;;3.58;;
59207;SDS011;44977;53.132;6.408;2023-09-19T10:57:01;11.25;;;3.20;;
59207;SDS011;44977;53.132;6.408;2023-09-19T11:02:16;13.38;;;3.67;;
59207;SDS011;44977;53.132;6.408;2023-09-19T11:07:18;12.48;;;3.95;;
59207;SDS011;44977;53.132;6.408;2023-09-19T11:17:35;13.40;;;3.50;;
59207;SDS011;44977;53.132;6.408;2023-09-19T11:33:15;11.65;;;3.25;;
59207;SDS011;44977;53.132;6.408;2023-09-19T11:38:39;16.75;;;3.60;;
59207;SDS011;44977;53.132;6.408;2023-09-19T11:43:50;12.73;;;3.20;;
59207;SDS011;44977;53.132;6.408;2023-09-19T11:49:17;11.57;;;3.33;;
59207;SDS011;44977;53.132;6.408;2023-09-19T11:54:31;12.50;;;3.25;;
59207;SDS011;44977;53.132;6.408;2023-09-19T11:59:32;13.88;;;3.15;;
59207;SDS011;44977;53.132;6.408;2023-09-19T12:04:40;12.50;;;3.30;;
59207;SDS011;44977;53.132;6.408;2023-09-19T12:09:43;12.32;;;3.33;;
59207;SDS011;44977;53.132;6.408;2023-09-19T12:14:48;16.33;;;3.55;;
59207;SDS011;44977;53.132;6.408;2023-09-19T12:19:52;13.80;;;3.47;;
59207;SDS011;44977;53.132;6.408;2023-09-19T12:24:54;12.82;;;3.20;;
59207;SDS011;44977;53.132;6.408;2023-09-19T12:30:07;13.90;;;3.10;;
59207;SDS011;44977;53.132;6.408;2023-09-19T12:35:09;12.00;;;3.13;;
59207;SDS011;44977;53.132;6.408;2023-09-19T12:40:20;11.65;;;2.58;;
59207;SDS011;44977;53.132;6.408;2023-09-19T12:45:22;11.43;;;2.50;;
59207;SDS011;44977;53.132;6.408;2023-09-19T12:50:23;9.80;;;2.40;;
59207;SDS011;44977;53.132;6.408;2023-09-19T12:55:29;10.05;;;2.40;;
59207;SDS011;44977;53.132;6.408;2023-09-19T13:11:09;11.43;;;2.58;;
59207;SDS011;44977;53.132;6.408;2023-09-19T13:16:19;11.43;;;3.20;;
59207;SDS011;44977;53.132;6.408;2023-09-19T13:21:30;11.75;;;2.65;;
59207;SDS011;44977;53.132;6.408;2023-09-19T13:26:52;10.07;;;2.45;;
59207;SDS011;44977;53.132;6.408;2023-09-19T13:31:53;10.32;;;2.40;;
59207;SDS011;44977;53.132;6.408;2023-09-19T13:36:54;9.63;;;2.20;;
59207;SDS011;44977;53.132;6.408;2023-09-19T13:41:54;9.60;;;2.10;;
59207;SDS011;44977;53.132;6.408;2023-09-19T13:46:55;8.82;;;2.17;;
59207;SDS011;44977;53.132;6.408;2023-09-19T13:51:57;8.52;;;2.03;;
59207;SDS011;44977;53.132;6.408;2023-09-19T13:57:01;7.30;;;1.80;;
59207;SDS011;44977;53.132;6.408;2023-09-19T14:02:02;8.88;;;2.10;;
59207;SDS011;44977;53.132;6.408;2023-09-19T14:07:05;8.45;;;2.13;;
59207;SDS011;44977;53.132;6.408;2023-09-19T14:12:07;8.70;;;2.25;;
59207;SDS011;44977;53.132;6.408;2023-09-19T14:17:09;7.50;;;2.05;;
59207;SDS011;44977;53.132;6.408;2023-09-19T14:22:10;7.13;;;2.10;;
59207;SDS011;44977;53.132;6.408;2023-09-19T14:27:10;8.75;;;2.40;;
59207;SDS011;44977;53.132;6.408;2023-09-19T14:32:11;7.35;;;2.17;;
59207;SDS011;44977;53.132;6.408;2023-09-19T14:37:12;7.53;;;2.20;;
59207;SDS011;44977;53.132;6.408;2023-09-19T14:42:14;9.73;;;2.33;;
59207;SDS011;44977;53.132;6.408;2023-09-19T14:47:17;7.85;;;1.95;;
59207;SDS011;44977;53.132;6.408;2023-09-19T14:52:19;9.80;;;2.47;;
59207;SDS011;44977;53.132;6.408;2023-09-19T14:57:19;6.90;;;1.77;;
59207;SDS011;44977;53.132;6.408;2023-09-19T15:02:20;5.90;;;1.85;;
59207;SDS011;44977;53.132;6.408;2023-09-19T15:07:21;6.20;;;1.83;;
59207;SDS011;44977;53.132;6.408;2023-09-19T15:12:22;9.82;;;1.98;;
59207;SDS011;44977;53.132;6.408;2023-09-19T15:17:22;6.35;;;1.88;;
59207;SDS011;44977;53.132;6.408;2023-09-19T15:22:25;8.88;;;2.13;;
59207;SDS011;44977;53.132;6.408;2023-09-19T15:27:26;7.07;;;1.98;;
59207;SDS011;44977;53.132;6.408;2023-09-19T15:32:30;9.52;;;2.40;;
59207;SDS011;44977;53.132;6.408;2023-09-19T15:37:31;7.85;;;1.90;;
59207;SDS011;44977;53.132;6.408;2023-09-19T15:42:31;7.32;;;2.30;;
59207;SDS011;44977;53.132;6.408;2023-09-19T15:47:32;8.52;;;2.40;;
59207;SDS011;44977;53.132;6.408;2023-09-19T15:52:34;7.45;;;2.58;;
59207;SDS011;44977;53.132;6.408;2023-09-19T15:57:38;8.18;;;2.22;;
59207;SDS011;44977;53.132;6.408;2023-09-19T16:02:39;8.68;;;2.35;;
59207;SDS011;44977;53.132;6.408;2023-09-19T16:07:40;8.25;;;2.13;;
59207;SDS011;44977;53.132;6.408;2023-09-19T16:12:40;6.82;;;2.00;;
59207;SDS011;44977;53.132;6.408;2023-09-19T16:17:41;6.75;;;2.38;;
59207;SDS011;44977;53.132;6.408;2023-09-19T16:22:44;8.77;;;2.58;;
59207;SDS011;44977;53.132;6.408;2023-09-19T16:27:46;6.85;;;2.13;;
59207;SDS011;44977;53.132;6.408;2023-09-19T16:32:47;8.07;;;2.17;;
59207;SDS011;44977;53.132;6.408;2023-09-19T16:37:47;8.57;;;2.30;;
59207;SDS011;44977;53.132;6.408;2023-09-19T16:42:49;10.02;;;2.95;;
59207;SDS011;44977;53.132;6.408;2023-09-19T16:47:49;11.40;;;3.05;;
59207;SDS011;44977;53.132;6.408;2023-09-19T16:52:50;8.57;;;2.60;;
59207;SDS011;44977;53.132;6.408;2023-09-19T16:57:51;8.82;;;2.92;;
59207;SDS011;44977;53.132;6.408;2023-09-19T17:02:52;9.48;;;2.90;;
59207;SDS011;44977;53.132;6.408;2023-09-19T17:07:53;9.40;;;2.92;;
59207;SDS011;44977;53.132;6.408;2023-09-19T17:12:53;10.00;;;3.38;;
59207;SDS011;44977;53.132;6.408;2023-09-19T17:17:55;10.85;;;3.70;;
59207;SDS011;44977;53.132;6.408;2023-09-19T17:22:56;8.07;;;3.10;;
59207;SDS011;44977;53.132;6.408;2023-09-19T17:27:57;9.90;;;3.45;;
59207;SDS011;44977;53.132;6.408;2023-09-19T17:32:58;11.57;;;3.83;;
59207;SDS011;44977;53.132;6.408;2023-09-19T17:37:59;11.40;;;4.13;;
59207;SDS011;44977;53.132;6.408;2023-09-19T17:43:00;8.20;;;3.35;;
59207;SDS011;44977;53.132;6.408;2023-09-19T17:48:02;11.25;;;3.80;;
59207;SDS011;44977;53.132;6.408;2023-09-19T17:53:05;11.13;;;3.53;;
59207;SDS011;44977;53.132;6.408;2023-09-19T17:58:06;9.18;;;3.40;;
59207;SDS011;44977;53.132;6.408;2023-09-19T18:03:06;10.68;;;3.70;;
59207;SDS011;44977;53.132;6.408;2023-09-19T18:08:08;9.27;;;3.40;;
59207;SDS011;44977;53.132;6.408;2023-09-19T18:13:08;10.60;;;3.42;;
59207;SDS011;44977;53.132;6.408;2023-09-19T18:18:09;10.88;;;3.63;;
59207;SDS011;44977;53.132;6.408;2023-09-19T18:23:11;11.25;;;3.88;;
59207;SDS011;44977;53.132;6.408;2023-09-19T18:28:12;11.00;;;3.40;;
59207;SDS011;44977;53.132;6.408;2023-09-19T18:33:13;12.05;;;3.97;;
59207;SDS011;44977;53.132;6.408;2023-09-19T18:38:14;10.88;;;4.05;;
59207;SDS011;44977;53.132;6.408;2023-09-19T18:43:15;11.73;;;4.25;;
59207;SDS011;44977;53.132;6.408;2023-09-19T18:48:16;11.68;;;4.03;;
59207;SDS011;44977;53.132;6.408;2023-09-19T18:53:17;9.88;;;3.95;;
59207;SDS011;44977;53.132;6.408;2023-09-19T18:58:18;11.25;;;4.85;;
59207;SDS011;44977;53.132;6.408;2023-09-19T19:03:19;9.45;;;4.10;;
59207;SDS011;44977;53.132;6.408;2023-09-19T19:08:20;11.07;;;4.43;;
59207;SDS011;44977;53.132;6.408;2023-09-19T19:13:21;11.88;;;4.78;;
59207;SDS011;44977;53.132;6.408;2023-09-19T19:18:21;9.85;;;4.10;;
59207;SDS011;44977;53.132;6.408;2023-09-19T19:23:28;9.63;;;4.20;;
59207;SDS011;44977;53.132;6.408;2023-09-19T19:28:32;10.63;;;4.75;;
59207;SDS011;44977;53.132;6.408;2023-09-19T19:33:34;11.95;;;4.95;;
59207;SDS011;44977;53.132;6.408;2023-09-19T19:38:36;8.48;;;4.20;;
59207;SDS011;44977;53.132;6.408;2023-09-19T19:43:37;8.98;;;4.07;;
59207;SDS011;44977;53.132;6.408;2023-09-19T19:48:38;10.57;;;4.38;;
59207;SDS011;44977;53.132;6.408;2023-09-19T19:53:39;8.57;;;4.10;;
59207;SDS011;44977;53.132;6.408;2023-09-19T19:58:40;8.63;;;4.35;;
59207;SDS011;44977;53.132;6.408;2023-09-19T20:03:40;9.98;;;4.30;;
59207;SDS011;44977;53.132;6.408;2023-09-19T20:08:42;11.30;;;4.72;;
59207;SDS011;44977;53.132;6.408;2023-09-19T20:13:43;10.02;;;4.25;;
59207;SDS011;44977;53.132;6.408;2023-09-19T20:18:44;8.85;;;4.18;;
59207;SDS011;44977;53.132;6.408;2023-09-19T20:23:45;8.43;;;4.10;;
59207;SDS011;44977;53.132;6.408;2023-09-19T20:28:46;8.38;;;4.43;;
59207;SDS011;44977;53.132;6.408;2023-09-19T20:33:47;9.45;;;4.60;;
59207;SDS011;44977;53.132;6.408;2023-09-19T20:38:49;9.68;;;4.40;;
59207;SDS011;44977;53.132;6.408;2023-09-19T20:43:50;9.23;;;4.80;;
59207;SDS011;44977;53.132;6.408;2023-09-19T20:48:50;9.05;;;4.50;;
59207;SDS011;44977;53.132;6.408;2023-09-19T20:53:52;11.10;;;5.50;;
59207;SDS011;44977;53.132;6.408;2023-09-19T20:58:53;12.52;;;5.15;;
59207;SDS011;44977;53.132;6.408;2023-09-19T21:03:54;13.05;;;5.68;;
59207;SDS011;44977;53.132;6.408;2023-09-19T21:08:56;9.63;;;4.70;;
59207;SDS011;44977;53.132;6.408;2023-09-19T21:13:57;11.27;;;4.65;;
59207;SDS011;44977;53.132;6.408;2023-09-19T21:18:58;10.65;;;4.90;;
59207;SDS011;44977;53.132;6.408;2023-09-19T21:24:03;10.93;;;4.90;;
59207;SDS011;44977;53.132;6.408;2023-09-19T21:29:05;10.05;;;5.20;;
59207;SDS011;44977;53.132;6.408;2023-09-19T21:34:06;11.80;;;5.00;;
59207;SDS011;44977;53.132;6.408;2023-09-19T21:39:07;13.57;;;4.88;;
59207;SDS011;44977;53.132;6.408;2023-09-19T21:44:08;9.77;;;4.93;;
59207;SDS011;44977;53.132;6.408;2023-09-19T21:49:09;10.65;;;5.30;;
59207;SDS011;44977;53.132;6.408;2023-09-19T21:54:10;10.70;;;5.22;;
59207;SDS011;44977;53.132;6.408;2023-09-19T21:59:11;10.38;;;4.95;;
59207;SDS011;44977;53.132;6.408;2023-09-19T22:04:12;11.85;;;5.20;;
59207;SDS011;44977;53.132;6.408;2023-09-19T22:09:13;12.23;;;5.40;;
59207;SDS011;44977;53.132;6.408;2023-09-19T22:14:13;10.60;;;4.78;;
59207;SDS011;44977;53.132;6.408;2023-09-19T22:19:14;13.23;;;5.10;;
59207;SDS011;44977;53.132;6.408;2023-09-19T22:24:16;12.90;;;5.40;;
59207;SDS011;44977;53.132;6.408;2023-09-19T22:29:20;11.68;;;4.55;;
59207;SDS011;44977;53.132;6.408;2023-09-19T22:34:22;12.80;;;4.95;;
59207;SDS011;44977;53.132;6.408;2023-09-19T22:39:22;11.60;;;5.50;;
59207;SDS011;44977;53.132;6.408;2023-09-19T22:44:29;10.43;;;4.90;;
59207;SDS011;44977;53.132;6.408;2023-09-19T22:49:31;10.65;;;5.28;;
59207;SDS011;44977;53.132;6.408;2023-09-19T22:54:32;12.57;;;5.10;;
59207;SDS011;44977;53.132;6.408;2023-09-19T22:59:36;11.98;;;4.78;;
59207;SDS011;44977;53.132;6.408;2023-09-19T23:04:36;10.20;;;4.35;;
59207;SDS011;44977;53.132;6.408;2023-09-19T23:09:38;10.27;;;4.38;;
59207;SDS011;44977;53.132;6.408;2023-09-19T23:14:38;10.30;;;5.13;;
59207;SDS011;44977;53.132;6.408;2023-09-19T23:19:40;13.02;;;4.93;;
59207;SDS011;44977;53.132;6.408;2023-09-19T23:24:42;11.32;;;4.57;;
59207;SDS011;44977;53.132;6.408;2023-09-19T23:29:44;12.35;;;5.35;;
59207;SDS011;44977;53.132;6.408;2023-09-19T23:34:45;12.38;;;5.43;;
59207;SDS011;44977;53.132;6.408;2023-09-19T23:39:47;11.52;;;4.72;;
59207;SDS011;44977;53.132;6.408;2023-09-19T23:44:49;9.60;;;4.65;;
59207;SDS011;44977;53.132;6.408;2023-09-19T23:49:51;11.13;;;4.85;;
59207;SDS011;44977;53.132;6.408;2023-09-19T23:54:53;9.90;;;4.63;;
59207;SDS011;44977;53.132;6.408;2023-09-19T23:59:54;10.82;;;5.03;;
